Latest Weather Observations for Friendly Beaches

IDT60801

Issued at 10:31 pm EST Tuesday 24 May 2022 (issued every 10 minutes, with the page automatically refreshed every 10 minutes)

About weather observations | Map of weather stations | Latest weather observations for TAS | Other Formats
Station Details ID: 092114 Name: FRIENDLY BEACHES Lat: -42.00 Lon: 148.28 Height: 55.0 m
Data from the previous 72 hours. | See also: Recent months at Friendly Beaches
Date/Time
EST
Temp
°C
App
Temp
°C
Dew
Point
°C
Rel
Hum
%
Delta-T
°C
Wind Press
QNH
hPa
Press
MSL
hPa
Rain since
9am
mm
Dir  Spd
km/h
Gust
km/h
Spd
kts
Gust
kts
24/10:30pm 7.3 4.3 6.2 93 0.5 WNW 11 15 6 8 1029.6 1029.6 0.2
24/10:00pm 7.0 4.0 5.9 93 0.5 WNW 11 13 6 7 1029.7 1029.7 0.0
24/09:30pm 7.9 5.5 6.8 93 0.5 WNW 9 11 5 6 1029.6 1029.6 0.0
24/09:00pm 7.9 5.5 6.8 93 0.5 WNW 9 11 5 6 1029.5 1029.5 0.0
24/08:30pm 7.6 5.1 6.5 93 0.5 WNW 9 13 5 7 1029.6 1029.6 0.0
24/08:00pm 7.1 4.1 6.0 93 0.5 WNW 11 13 6 7 1029.8 1029.8 0.0
24/07:30pm 7.2 4.2 6.0 92 0.5 NW 11 13 6 7 1029.6 1029.6 0.0
24/07:00pm 8.1 6.0 6.7 91 0.6 WNW 7 9 4 5 1029.2 1029.2 0.0
24/06:30pm 8.9 7.9 7.4 90 0.7 NNE 2 4 1 2 1028.9 1028.9 0.0
24/06:00pm 9.1 7.7 7.4 89 0.8 NNE 4 6 2 3 1028.8 1028.8 0.0
24/05:30pm 9.5 8.2 7.6 88 0.9 NE 4 4 2 2 1028.6 1028.6 0.0
24/05:00pm 9.6 8.6 7.2 85 1.1 ENE 2 4 1 2 1028.7 1028.7 0.0
24/04:30pm 10.4 9.1 7.5 82 1.4 NNE 4 6 2 3 1028.7 1028.7 0.0
24/04:00pm 11.5 10.2 7.6 77 1.9 NE 4 7 2 4 1028.7 1028.7 0.0
24/03:30pm 12.3 10.4 7.4 72 2.4 NE 7 13 4 7 1028.6 1028.6 0.0
24/03:00pm 13.4 11.8 7.8 69 2.7 ENE 6 9 3 5 1028.7 1028.7 0.0
24/02:30pm 13.3 11.7 8.0 70 2.6 ENE 6 7 3 4 1029.1 1029.1 0.0
24/02:00pm 14.0 12.3 7.5 65 3.2 ENE 6 9 3 5 1029.2 1029.2 0.0
24/01:30pm 14.1 12.3 7.9 66 3.1 ENE 7 9 4 5 1029.3 1029.3 0.0
24/01:00pm 14.3 12.5 7.8 65 3.2 E 7 11 4 6 1029.5 1029.5 0.0
24/12:30pm 14.3 13.1 6.6 60 3.7 WNW 2 6 1 3 1029.7 1029.7 0.0
24/12:00pm 13.7 12.2 7.0 64 3.2 W 4 6 2 3 1030.1 1030.1 0.0
24/11:30am 12.6 10.6 6.9 68 2.7 WNW 7 9 4 5 1030.3 1030.4 0.0
24/11:00am 11.9 9.9 7.0 72 2.3 WNW 7 11 4 6 1030.9 1031.0 0.0
24/10:30am 11.1 9.2 7.6 79 1.7 WNW 7 9 4 5 1031.1 1031.2 0.0
24/10:00am 9.5 7.5 6.9 84 1.2 WNW 7 11 4 6 1031.1 1031.2 0.0
24/09:30am 8.1 5.6 6.4 89 0.8 WNW 9 11 5 6 1031.0 1031.1 0.0
24/09:00am 7.1 4.1 5.9 92 0.5 WNW 11 15 6 8 1031.0 1031.1 0.2
24/08:30am 6.1 2.5 5.2 94 0.4 WNW 13 15 7 8 1030.8 1030.9 0.2
24/08:00am 5.3 1.6 4.3 93 0.4 WNW 13 15 7 8 1030.8 1030.9 0.2
24/07:30am 5.6 1.9 4.6 93 0.4 WNW 13 15 7 8 1030.5 1030.6 0.2
24/07:00am 5.8 2.2 4.8 93 0.4 WNW 13 13 7 7 1030.3 1030.4 0.2
24/06:30am 5.4 1.7 4.4 93 0.4 WNW 13 15 7 8 1030.1 1030.1 0.2
24/06:00am 5.4 1.7 4.4 93 0.4 WNW 13 15 7 8 1030.0 1030.0 0.2
24/05:30am 6.0 2.4 5.0 93 0.4 WNW 13 15 7 8 1029.8 1029.8 0.2
24/05:00am 6.0 2.4 5.0 93 0.4 WNW 13 13 7 7 1029.8 1029.8 0.2
24/04:30am 5.6 1.9 4.6 93 0.4 WNW 13 15 7 8 1029.8 1029.8 0.2
24/04:00am 6.3 2.8 5.3 93 0.4 WNW 13 15 7 8 1029.6 1029.6 0.2
24/03:30am 6.4 2.9 5.4 93 0.4 WNW 13 15 7 8 1029.8 1029.8 0.2
24/03:00am 6.3 2.8 5.3 93 0.4 WNW 13 15 7 8 1030.0 1030.0 0.2
24/02:30am 5.8 2.2 4.8 93 0.4 WNW 13 15 7 8 1030.0 1030.0 0.0
24/02:00am 5.4 1.7 4.4 93 0.4 WNW 13 15 7 8 1030.2 1030.3 0.0
24/01:30am 6.3 2.8 5.3 93 0.4 WNW 13 13 7 7 1030.1 1030.1 0.0
24/01:00am 6.5 3.4 5.5 93 0.4 WNW 11 13 6 7 1030.3 1030.4 0.0
24/12:30am 6.5 3.4 5.5 93 0.4 WNW 11 13 6 7 1030.5 1030.6 0.0
24/12:00am 6.3 3.1 5.1 92 0.5 WNW 11 13 6 7 1030.4 1030.5 0.0
 
Date/Time
EST
Temp
°C
App
Temp
°C
Dew
Point
°C
Rel
Hum
%
Delta-T
°C
Wind Press
QNH
hPa
Press
MSL
hPa
Rain since
9am
mm
Dir  Spd
km/h
Gust
km/h
Spd
kts
Gust
kts
23/11:30pm 6.8 4.1 5.7 93 0.5 WNW 9 11 5 6 1030.5 1030.6 0.0
23/11:00pm 6.8 3.7 5.7 93 0.5 WNW 11 11 6 6 1030.6 1030.7 0.0
23/10:30pm 6.4 3.7 5.4 93 0.4 WNW 9 9 5 5 1030.7 1030.8 0.0
23/10:00pm 6.6 4.2 5.4 92 0.5 WNW 7 7 4 4 1030.7 1030.8 0.0
23/09:30pm 7.4 5.2 6.0 91 0.6 WNW 7 7 4 4 1030.6 1030.7 0.0
23/09:00pm 7.6 5.4 6.1 90 0.7 NW 7 7 4 4 1030.5 1030.6 0.0
23/08:30pm 7.8 5.2 5.9 88 0.9 WNW 9 11 5 6 1030.4 1030.5 0.0
23/08:00pm 9.7 7.6 6.8 82 1.4 NNW 7 9 4 5 1030.3 1030.4 0.0
23/07:30pm 9.6 7.2 7.0 84 1.2 NNW 9 11 5 6 1030.2 1030.3 0.0
23/07:00pm 9.3 7.5 7.1 86 1.0 NNW 6 9 3 5 1030.1 1030.1 0.0
23/06:30pm 10.1 8.4 7.7 85 1.2 N 6 9 3 5 1030.0 1030.0 0.0
23/06:00pm 10.5 8.7 7.9 84 1.2 N 7 9 4 5 1029.9 1029.9 0.0
23/05:30pm 10.5 8.4 8.1 85 1.2 N 9 11 5 6 1029.8 1029.8 0.0
23/05:00pm 10.2 8.3 7.4 83 1.3 N 7 9 4 5 1029.7 1029.7 0.0
23/04:30pm 11.1 9.3 8.0 81 1.5 NNE 7 9 4 5 1029.8 1029.8 0.0
23/04:00pm 12.1 10.3 8.0 76 2.0 NNE 7 9 4 5 1029.7 1029.7 0.0
23/03:30pm 13.6 12.0 8.0 69 2.8 NNE 6 7 3 4 1029.9 1029.9 0.0
23/03:00pm 15.0 13.4 8.0 63 3.5 NE 6 9 3 5 1029.8 1029.8 0.0
23/02:30pm 15.4 13.7 7.7 60 3.8 ENE 6 7 3 4 1029.9 1029.9 0.0
23/02:00pm 15.7 14.0 7.7 59 4.0 ESE 6 6 3 3 1029.9 1029.9 0.0
23/01:30pm 15.6 13.9 7.6 59 4.0 SE 6 7 3 4 1029.9 1029.9 0.0
23/01:00pm 14.9 13.3 7.9 63 3.5 ESE 6 9 3 5 1030.2 1030.3 0.0
23/12:30pm 15.0 14.5 8.0 63 3.5 CALM 0 2 0 1 1030.6 1030.7 0.0
23/12:00pm 14.1 13.1 7.4 64 3.3 WSW 2 4 1 2 1030.8 1030.9 0.0
23/11:30am 13.5 11.8 7.5 67 2.9 WNW 6 7 3 4 1031.3 1031.4 0.0
23/11:00am 12.2 10.4 7.1 71 2.4 W 6 11 3 6 1031.6 1031.7 0.0
23/10:30am 11.3 9.4 7.6 78 1.8 W 7 9 4 5 1031.5 1031.6 0.0
23/10:00am 10.9 8.4 6.5 74 2.1 WNW 9 11 5 6 1031.4 1031.5 0.0
23/09:30am 9.7 6.7 5.9 77 1.7 WNW 11 13 6 7 1031.5 1031.6 0.0
23/09:00am 8.9 5.7 5.3 78 1.6 WNW 11 13 6 7 1031.5 1031.6 0.0
23/08:30am 8.2 5.0 5.1 81 1.4 WNW 11 15 6 8 1031.4 1031.5 0.0
23/08:00am 7.5 3.8 4.6 82 1.3 WNW 13 17 7 9 1031.3 1031.4 0.0
23/07:30am 7.1 3.5 4.8 85 1.0 WNW 13 15 7 8 1031.0 1031.1 0.0
23/07:00am 7.1 3.4 4.4 83 1.2 WNW 13 15 7 8 1030.9 1031.0 0.0
23/06:30am 7.3 3.6 4.6 83 1.2 WNW 13 15 7 8 1030.7 1030.8 0.0
23/06:00am 7.1 3.4 4.6 84 1.1 W 13 15 7 8 1030.5 1030.6 0.0
23/05:30am 6.5 2.8 4.3 86 0.9 WNW 13 15 7 8 1030.4 1030.5 0.0
23/05:00am 6.8 3.1 4.5 85 1.0 WNW 13 15 7 8 1030.4 1030.5 0.0
23/04:30am 6.9 3.2 4.7 86 1.0 WNW 13 15 7 8 1030.3 1030.4 0.0
23/04:00am 6.6 3.0 4.8 88 0.8 WNW 13 15 7 8 1030.3 1030.4 0.0
23/03:30am 6.8 3.1 4.6 86 1.0 WNW 13 15 7 8 1030.3 1030.4 0.0
23/03:00am 6.8 3.2 4.8 87 0.9 WNW 13 15 7 8 1030.6 1030.7 0.0
23/02:30am 7.0 3.7 4.8 86 1.0 WNW 11 13 6 7 1030.6 1030.7 0.0
23/02:00am 6.7 3.0 4.5 86 0.9 WNW 13 15 7 8 1030.7 1030.8 0.0
23/01:30am 7.0 3.4 5.0 87 0.9 WNW 13 15 7 8 1030.7 1030.8 0.0
23/01:00am 6.9 3.2 4.7 86 1.0 WNW 13 15 7 8 1030.8 1030.9 0.0
23/12:30am 7.7 4.5 5.3 85 1.1 WNW 11 13 6 7 1030.8 1030.9 0.0
23/12:00am 7.7 4.6 5.7 87 0.9 WNW 11 13 6 7 1031.1 1031.2 0.0
 
Date/Time
EST
Temp
°C
App
Temp
°C
Dew
Point
°C
Rel
Hum
%
Delta-T
°C
Wind Press
QNH
hPa
Press
MSL
hPa
Rain since
9am
mm
Dir  Spd
km/h
Gust
km/h
Spd
kts
Gust
kts
22/11:30pm 7.2 4.1 5.5 89 0.8 WNW 11 13 6 7 1031.1 1031.2 0.0
22/11:00pm 7.0 3.8 5.2 88 0.8 WNW 11 11 6 6 1031.0 1031.1 0.0
22/10:30pm 7.5 4.7 5.3 86 1.0 W 9 11 5 6 1031.2 1031.3 0.0
22/10:00pm 8.0 4.9 5.5 84 1.1 W 11 11 6 6 1031.2 1031.3 0.0
22/09:30pm 8.2 5.5 5.5 83 1.2 W 9 11 5 6 1030.9 1031.0 0.0
22/09:00pm 8.2 5.5 5.7 84 1.1 W 9 11 5 6 1030.8 1030.9 0.0
22/08:30pm 8.5 6.2 5.6 82 1.3 W 7 9 4 5 1030.7 1030.8 0.0
22/08:00pm 8.8 6.5 5.5 80 1.5 W 7 9 4 5 1030.7 1030.8 0.0
22/07:30pm 9.3 6.7 5.9 79 1.6 WNW 9 13 5 7 1030.7 1030.8 0.0
22/07:00pm 9.2 6.9 5.9 80 1.5 WNW 7 9 4 5 1030.8 1030.9 0.0
22/06:30pm 9.0 6.7 5.7 80 1.5 WNW 7 9 4 5 1030.7 1030.8 0.0
22/06:00pm 9.4 7.1 5.8 78 1.6 WNW 7 9 4 5 1030.5 1030.6 0.0
22/05:30pm 9.9 7.6 5.9 76 1.8 WNW 7 7 4 4 1030.4 1030.5 0.0
22/05:00pm 10.6 8.7 6.6 76 1.9 WSW 6 7 3 4 1030.4 1030.5 0.0
22/04:30pm 10.8 8.8 6.4 74 2.1 W 6 7 3 4 1030.5 1030.6 0.0
22/04:00pm 11.4 9.4 6.3 71 2.4 W 6 7 3 4 1030.5 1030.6 0.0
22/03:30pm 12.4 10.5 6.9 69 2.6 W 6 9 3 5 1030.4 1030.5 0.0
22/03:00pm 12.6 10.6 6.4 66 2.9 W 6 7 3 4 1030.4 1030.5 0.0
22/02:30pm 12.7 10.6 5.8 63 3.2 WSW 6 11 3 6 1030.6 1030.7 0.0
22/02:00pm 12.5 10.1 5.2 61 3.4 WSW 7 13 4 7 1030.8 1030.9 0.0
22/01:30pm 12.8 10.3 5.0 59 3.6 WSW 7 11 4 6 1030.9 1031.0 0.0
22/01:00pm 12.9 10.7 5.1 59 3.6 W 6 11 3 6 1031.0 1031.1 0.0
22/12:30pm 12.9 10.0 4.6 57 3.8 W 9 17 5 9 1031.3 1031.4 0.0
22/12:00pm 12.3 8.6 4.3 58 3.6 W 13 19 7 10 1031.7 1031.8 0.0
22/11:30am 12.3 9.0 4.5 59 3.6 W 11 19 6 10 1032.3 1032.4 0.0
22/11:00am 11.8 8.9 4.5 61 3.3 W 9 17 5 9 1032.7 1032.8 0.0
22/10:30am 11.1 7.4 4.6 64 2.9 WSW 13 20 7 11 1032.7 1032.8 0.0
22/10:00am 10.5 7.6 4.6 67 2.6 W 9 19 5 10 1032.8 1032.9 0.0
22/09:30am 9.3 6.0 4.5 72 2.1 W 11 17 6 9 1032.8 1032.9 0.0
22/09:00am 8.3 5.4 4.5 77 1.7 W 9 13 5 7 1032.9 1033.0 0.0
22/08:30am 7.4 4.4 4.2 80 1.4 W 9 15 5 8 1032.9 1033.0 0.0
22/08:00am 7.0 4.0 4.3 83 1.2 W 9 13 5 7 1033.0 1033.1 0.0
22/07:30am 7.7 4.8 4.8 82 1.3 WSW 9 17 5 9 1033.0 1033.1 0.0
22/07:00am 7.6 4.7 4.6 81 1.3 WSW 9 17 5 9 1032.9 1033.0 0.0
22/06:30am 7.5 4.6 4.8 83 1.2 WSW 9 15 5 8 1032.7 1032.8 0.0
22/06:00am 7.1 4.2 4.8 85 1.0 W 9 15 5 8 1032.6 1032.7 0.0
22/05:30am 7.2 4.7 4.9 85 1.0 W 7 13 4 7 1032.5 1032.6 0.0
22/05:00am 7.3 4.5 5.1 86 1.0 W 9 11 5 6 1032.5 1032.6 0.0
22/04:30am 7.3 4.9 5.3 87 0.9 W 7 11 4 6 1032.3 1032.4 0.0
22/04:00am 7.7 5.5 6.0 89 0.8 W 7 9 4 5 1032.4 1032.5 0.0
22/03:30am 7.6 5.5 5.9 89 0.8 W 6 7 3 4 1032.4 1032.5 0.0
22/03:00am 7.5 5.2 5.8 89 0.8 WNW 7 7 4 4 1032.6 1032.7 0.0
22/02:30am 7.6 5.5 5.9 89 0.8 WNW 6 7 3 4 1032.8 1032.9 0.0
22/02:00am 7.8 5.5 5.9 88 0.9 WNW 7 9 4 5 1032.8 1032.9 0.0
22/01:30am 7.9 5.6 5.9 87 0.9 W 7 9 4 5 1032.9 1033.0 0.0
22/01:00am 7.9 5.6 5.9 87 0.9 W 7 9 4 5 1033.0 1033.1 0.0
22/12:30am 7.8 5.5 5.8 87 0.9 WNW 7 9 4 5 1033.1 1033.2 0.0
22/12:00am 7.7 5.4 5.8 88 0.8 W 7 11 4 6 1033.3 1033.4 0.0
 
Date/Time
EST
Temp
°C
App
Temp
°C
Dew
Point
°C
Rel
Hum
%
Delta-T
°C
Wind Press
QNH
hPa
Press
MSL
hPa
Rain since
9am
mm
Dir  Spd
km/h
Gust
km/h
Spd
kts
Gust
kts
21/11:30pm 7.8 5.5 5.8 87 0.9 WNW 7 9 4 5 1033.4 1033.5 0.0
21/11:00pm 7.9 5.3 6.0 88 0.9 W 9 13 5 7 1033.6 1033.7 0.0

Other formats

Comma delimited format used in spreadsheet applications
http://www.bom.gov.au/fwo/IDT60801/IDT60801.94987.axf

JavaScript Object Notation format (JSON) in row-major order
http://www.bom.gov.au/fwo/IDT60801/IDT60801.94987.json

Data quality

Most of these data are generated automatically and are frequently updated. Quality checks on data are not normally performed. It is possible for incorrect values to appear. Refer to information at About Latest Weather Observations and please check the disclaimer before using these data.